Time;durP1;ratioP1;P1;durP2;ratioP2;P2;SDS_P1;SDS_P2;PMS_P1;PMS_P2;Temp;Humidity;BMP_temperature;BMP_pressure;BME280_temperature;BME280_humidity;BME280_pressure;Samples;Min_cycle;Max_cycle;Signal;HPM_P1;HPM_P2
2023/06/17 00:01:41;;;;;;;12.20;5.50;;;;;;;16.48;100.00;101497.34;5273327;28;20151;-68
2023/06/17 00:04:12;;;;;;;7.32;5.40;;;;;;;16.41;100.00;101494.34;5270735;28;20426;-68
2023/06/17 00:06:44;;;;;;;14.80;6.28;;;;;;;16.32;100.00;101492.50;5275833;28;20032;-68
2023/06/17 00:09:15;;;;;;;15.88;7.10;;;;;;;16.25;100.00;101492.19;5273104;28;20044;-67
2023/06/17 00:11:47;;;;;;;10.52;6.43;;;;;;;16.19;100.00;101487.38;5272216;28;20024;-68
2023/06/17 00:14:20;;;;;;;8.65;6.40;;;;;;;16.19;100.00;101487.38;5272006;28;20482;-68
2023/06/17 00:16:52;;;;;;;11.93;6.22;;;;;;;16.26;100.00;101480.44;5275071;28;20055;-68
2023/06/17 00:19:24;;;;;;;15.07;6.28;;;;;;;16.27;100.00;101478.59;5273337;28;20102;-67
2023/06/17 00:21:56;;;;;;;11.45;6.07;;;;;;;16.07;100.00;101480.41;5270231;28;20039;-67
2023/06/17 00:24:27;;;;;;;10.52;6.22;;;;;;;16.10;100.00;101474.72;5275709;28;20028;-68
2023/06/17 00:26:58;;;;;;;11.10;6.28;;;;;;;15.98;100.00;101476.69;5271110;28;20048;-67
2023/06/17 00:29:30;;;;;;;13.38;7.82;;;;;;;16.08;100.00;101463.25;5273475;28;20355;-68
2023/06/17 00:32:01;;;;;;;14.73;6.93;;;;;;;15.98;100.00;101470.47;5271565;28;20797;-68
2023/06/17 00:34:33;;;;;;;11.60;6.93;;;;;;;15.88;100.00;101465.88;5272164;28;20086;-69
2023/06/17 00:37:04;;;;;;;10.35;6.10;;;;;;;15.88;100.00;101468.59;5274229;28;20793;-68
2023/06/17 00:39:36;;;;;;;11.57;6.57;;;;;;;15.82;100.00;101466.44;5270677;28;20119;-68
2023/06/17 00:42:07;;;;;;;11.73;6.45;;;;;;;15.74;100.00;101468.94;5270873;28;20032;-68
2023/06/17 00:44:39;;;;;;;12.68;6.45;;;;;;;15.78;100.00;101470.41;5275592;28;20038;-68
2023/06/17 00:47:13;;;;;;;12.95;7.20;;;;;;;15.65;100.00;101458.97;5273065;28;20017;-68
2023/06/17 00:49:46;;;;;;;10.98;6.68;;;;;;;15.62;100.00;101478.06;5272981;28;20028;-68
2023/06/17 00:52:17;;;;;;;11.05;6.38;;;;;;;15.61;100.00;101470.97;5275590;28;20044;-68
2023/06/17 00:54:49;;;;;;;10.48;6.57;;;;;;;15.55;100.00;101468.84;5271920;28;20033;-68
2023/06/17 00:57:23;;;;;;;10.63;7.05;;;;;;;15.54;100.00;101467.16;5270230;28;20051;-68
2023/06/17 00:59:54;;;;;;;13.60;6.87;;;;;;;15.58;100.00;101463.19;5272981;28;20020;-68
2023/06/17 01:02:26;;;;;;;14.35;6.93;;;;;;;15.50;100.00;101466.56;5274954;28;20629;-68
2023/06/17 01:05:01;;;;;;;11.05;7.13;;;;;;;15.38;100.00;101465.78;5272660;28;20031;-68
2023/06/17 01:07:45;;;;;;;8.50;6.22;;;;;;;15.38;100.00;101465.78;5273057;28;20056;-68
2023/06/17 01:10:54;;;;;;;11.85;6.55;;;;;;;15.42;100.00;101474.44;5267804;28;20588;-68
2023/06/17 01:13:27;;;;;;;10.65;6.38;;;;;;;15.26;100.00;101465.03;5260615;28;20417;-68
2023/06/17 01:16:00;;;;;;;10.80;5.78;;;;;;;15.22;100.00;101465.41;5268419;28;20589;-67
2023/06/17 01:18:32;;;;;;;11.43;6.10;;;;;;;15.15;100.00;101458.84;5268485;28;20389;-68
2023/06/17 01:21:04;;;;;;;8.85;6.30;;;;;;;15.02;100.00;101459.91;5267824;28;20036;-68
2023/06/17 01:23:37;;;;;;;11.02;6.40;;;;;;;15.04;100.00;101460.63;5267064;28;20029;-67
2023/06/17 01:26:09;;;;;;;9.75;6.32;;;;;;;14.96;100.00;101452.38;5267706;28;20439;-68
2023/06/17 01:28:44;;;;;;;12.10;6.85;;;;;;;15.07;100.00;101463.06;5263121;28;20031;-67
2023/06/17 01:31:18;;;;;;;10.43;6.45;;;;;;;14.94;100.00;101458.84;5265726;28;20043;-68
2023/06/17 01:33:51;;;;;;;9.73;6.50;;;;;;;14.88;100.00;101458.41;5268063;28;20024;-68
2023/06/17 01:36:29;;;;;;;8.85;6.07;;;;;;;14.87;100.00;101450.47;5265634;28;20039;-68
2023/06/17 01:39:03;;;;;;;11.50;6.63;;;;;;;14.80;100.00;101452.81;5270299;28;20036;-68
2023/06/17 01:41:45;;;;;;;9.55;6.60;;;;;;;14.76;100.00;101456.75;5268313;28;20032;-68
2023/06/17 01:44:18;;;;;;;7.97;5.95;;;;;;;14.76;100.00;101464.81;5265839;28;20037;-68
2023/06/17 01:46:50;;;;;;;9.60;6.17;;;;;;;14.66;100.00;101456.69;5265181;28;20024;-67
2023/06/17 01:49:22;;;;;;;10.55;6.30;;;;;;;14.68;100.00;101454.72;5267992;28;20295;-67
2023/06/17 01:51:53;;;;;;;9.82;6.68;;;;;;;14.63;100.00;101456.06;5265923;28;20036;-67
2023/06/17 01:54:27;;;;;;;8.73;6.28;;;;;;;14.78;100.00;101445.88;5265434;28;20347;-68
2023/06/17 01:56:58;;;;;;;10.15;5.95;;;;;;;14.64;100.00;101455.13;5262047;28;20032;-68
2023/06/17 01:59:30;;;;;;;10.18;6.45;;;;;;;14.66;100.00;101455.84;5264299;28;20046;-68
2023/06/17 02:02:01;;;;;;;9.38;6.22;;;;;;;14.62;100.00;101457.06;5263831;28;20212;-68
2023/06/17 02:04:33;;;;;;;9.52;6.47;;;;;;;14.58;100.00;101451.09;5262282;28;20926;-68
2023/06/17 02:07:04;;;;;;;9.88;6.55;;;;;;;14.58;100.00;101452.94;5270170;28;20055;-68
2023/06/17 02:09:37;;;;;;;16.80;8.02;;;;;;;14.61;100.00;101450.84;5265484;28;20498;-68
2023/06/17 02:12:08;;;;;;;8.48;6.15;;;;;;;14.54;100.00;101446.09;5266124;28;20030;-68
2023/06/17 02:14:40;;;;;;;8.82;6.72;;;;;;;14.51;100.00;101445.34;5259488;28;20486;-69
2023/06/17 02:17:12;;;;;;;8.85;6.72;;;;;;;14.63;100.00;101438.16;5265515;28;20036;-68
2023/06/17 02:19:43;;;;;;;9.45;6.70;;;;;;;14.46;100.00;101449.44;5265195;28;20016;-67
2023/06/17 02:22:14;;;;;;;10.10;6.70;;;;;;;14.49;100.00;101438.41;5263845;28;20448;-67
2023/06/17 02:24:46;;;;;;;10.50;6.68;;;;;;;14.55;100.00;101445.09;5263932;28;20028;-67
2023/06/17 02:27:18;;;;;;;11.07;6.93;;;;;;;14.60;100.00;101437.56;5266216;28;20028;-67
2023/06/17 02:29:49;;;;;;;11.07;6.68;;;;;;;14.43;100.00;101430.88;5265441;28;20074;-68
2023/06/17 02:32:21;;;;;;;12.45;6.50;;;;;;;14.40;100.00;101439.16;5261703;28;20028;-68
2023/06/17 02:34:53;;;;;;;8.23;7.05;;;;;;;14.36;100.00;101430.50;5264281;28;20089;-68
2023/06/17 02:37:24;;;;;;;10.35;7.07;;;;;;;14.42;100.00;101423.78;5269339;28;20350;-68
2023/06/17 02:39:56;;;;;;;13.10;7.30;;;;;;;14.43;100.00;101431.72;5268889;28;20035;-67
2023/06/17 02:42:27;;;;;;;11.35;7.40;;;;;;;14.26;100.00;101426.91;5268726;28;20390;-67
2023/06/17 02:44:59;;;;;;;14.50;7.75;;;;;;;14.32;100.00;101423.69;5267475;28;20032;-67
2023/06/17 02:47:30;;;;;;;11.63;6.68;;;;;;;14.26;100.00;101425.06;5268058;28;20033;-67
2023/06/17 02:50:02;;;;;;;12.18;6.70;;;;;;;14.22;100.00;101428.97;5264248;28;20067;-67
2023/06/17 02:52:34;;;;;;;8.93;6.97;;;;;;;14.27;100.00;101431.31;5267417;28;20431;-67
2023/06/17 02:55:06;;;;;;;9.23;6.88;;;;;;;14.19;100.00;101425.69;5266660;28;20119;-68
2023/06/17 02:57:37;;;;;;;17.05;7.40;;;;;;;14.23;100.00;101422.66;5268551;28;20037;-67
2023/06/17 03:00:10;;;;;;;12.43;7.05;;;;;;;14.11;100.00;101420.97;5264071;28;20053;-67
2023/06/17 03:02:42;;;;;;;10.75;7.15;;;;;;;14.02;100.00;101435.16;5266373;28;20031;-67
2023/06/17 03:05:14;;;;;;;14.52;8.10;;;;;;;14.03;100.00;101421.59;5263361;28;20020;-67
2023/06/17 03:07:46;;;;;;;14.98;7.90;;;;;;;14.00;100.00;101419.19;5270817;28;20055;-67
2023/06/17 03:10:17;;;;;;;15.68;7.70;;;;;;;13.99;100.00;101427.34;5269039;28;20032;-67
2023/06/17 03:12:49;;;;;;;12.23;8.15;;;;;;;13.89;100.00;101422.72;5268062;28;20395;-67
2023/06/17 03:15:20;;;;;;;13.20;7.35;;;;;;;13.83;100.00;101415.19;5266571;28;20040;-67
2023/06/17 03:17:52;;;;;;;16.70;7.75;;;;;;;13.83;100.00;101414.34;5267334;28;20052;-67
2023/06/17 03:20:28;;;;;;;15.35;7.95;;;;;;;13.83;100.00;101412.50;5267221;28;20119;-67
2023/06/17 03:23:02;;;;;;;15.02;7.72;;;;;;;13.75;100.00;101419.44;5267390;28;20076;-67
2023/06/17 03:25:34;;;;;;;18.50;8.52;;;;;;;13.74;100.00;101413.25;5264722;28;20148;-67
2023/06/17 03:28:05;;;;;;;11.10;7.53;;;;;;;13.75;100.00;101422.13;5256860;28;20028;-68
2023/06/17 03:30:40;;;;;;;14.13;7.38;;;;;;;13.69;100.00;101415.44;5258352;28;20483;-67
2023/06/17 03:33:12;;;;;;;;;;;;;;;13.87;100.00;101411.28;5258075;28;20028;-68
2023/06/17 03:35:43;;;;;;;15.77;7.88;;;;;;;13.73;100.00;101409.72;5256724;28;19991;-67
2023/06/17 03:38:16;;;;;;;13.82;7.43;;;;;;;13.62;100.00;101414.25;5258884;28;20086;-67
2023/06/17 03:40:47;;;;;;;12.07;7.32;;;;;;;13.65;100.00;101414.84;5255785;28;20035;-67
2023/06/17 03:43:19;;;;;;;15.13;7.70;;;;;;;13.63;100.00;101414.09;5267999;28;20370;-67
2023/06/17 03:45:50;;;;;;;10.43;7.20;;;;;;;13.64;100.00;101417.66;5265451;28;20021;-68
2023/06/17 03:48:22;;;;;;;10.68;7.65;;;;;;;13.63;100.00;101408.72;5254795;28;20033;-67
2023/06/17 03:50:53;;;;;;;10.05;7.05;;;;;;;13.59;100.00;101409.97;5254886;28;20482;-67
2023/06/17 03:53:25;;;;;;;8.98;7.47;;;;;;;13.63;100.00;101405.22;5255472;28;20673;-67
2023/06/17 03:55:56;;;;;;;11.45;7.97;;;;;;;13.58;100.00;101410.94;5261152;28;20071;-67
2023/06/17 03:58:28;;;;;;;11.95;7.30;;;;;;;13.60;100.00;101410.84;5255998;28;20035;-67
2023/06/17 04:00:59;;;;;;;10.90;7.38;;;;;;;13.70;100.00;101407.28;5259648;28;20040;-67
2023/06/17 04:03:31;;;;;;;13.00;8.27;;;;;;;13.53;100.00;101400.59;5256900;28;20062;-67
2023/06/17 04:06:02;;;;;;;14.02;7.68;;;;;;;13.58;100.00;101407.44;5263593;28;21253;-67
2023/06/17 04:08:35;;;;;;;14.23;7.72;;;;;;;13.73;100.00;101407.03;5265015;28;20164;-67
2023/06/17 04:11:07;;;;;;;12.38;7.78;;;;;;;13.63;100.00;101405.22;5263459;28;20422;-68
2023/06/17 04:13:40;;;;;;;14.57;8.40;;;;;;;13.63;100.00;101403.38;5265691;28;20048;-67
2023/06/17 04:16:15;;;;;;;15.43;8.20;;;;;;;13.63;100.00;101411.41;5267162;28;20115;-67
2023/06/17 04:18:46;;;;;;;13.10;8.30;;;;;;;13.63;100.00;101408.72;5264780;28;20033;-67
2023/06/17 04:21:18;;;;;;;14.23;8.20;;;;;;;13.60;100.00;101411.69;5263022;28;20082;-67
2023/06/17 04:23:50;;;;;;;13.57;8.82;;;;;;;13.65;100.00;101412.19;5262344;28;20029;-67
2023/06/17 04:26:22;;;;;;;10.85;8.40;;;;;;;13.62;100.00;101416.94;5266066;28;20530;-67
2023/06/17 04:28:54;;;;;;;11.77;8.93;;;;;;;13.65;100.00;101413.97;5263447;28;20471;-67
2023/06/17 04:31:27;;;;;;;12.57;8.60;;;;;;;13.77;100.00;101415.69;5265254;28;20032;-68
2023/06/17 04:34:00;;;;;;;10.63;8.75;;;;;;;13.72;100.00;101420.56;5264089;28;20036;-67
2023/06/17 04:36:32;;;;;;;12.90;8.67;;;;;;;13.73;100.00;101415.09;5268167;28;20032;-67
2023/06/17 04:39:04;;;;;;;14.95;8.40;;;;;;;13.70;100.00;101409.94;5256722;28;20032;-67
2023/06/17 04:41:35;;;;;;;12.85;8.90;;;;;;;13.75;100.00;101414.09;5268433;28;20483;-67
2023/06/17 04:44:08;;;;;;;15.07;9.70;;;;;;;13.78;100.00;101414.69;5255119;28;20063;-68
2023/06/17 04:46:39;;;;;;;14.35;10.25;;;;;;;13.80;100.00;101422.63;5259045;28;20035;-67
2023/06/17 04:49:11;;;;;;;12.68;9.18;;;;;;;13.83;100.00;101425.91;5267245;28;20036;-67
2023/06/17 04:51:42;;;;;;;14.77;10.95;;;;;;;13.88;100.00;101425.53;5269167;28;20046;-68
2023/06/17 04:54:14;;;;;;;12.45;10.20;;;;;;;13.86;100.00;101420.28;5270584;28;20036;-67
2023/06/17 04:56:45;;;;;;;13.70;11.73;;;;;;;13.90;100.00;101419.09;5268651;28;20106;-68
2023/06/17 04:59:19;;;;;;;14.23;12.20;;;;;;;13.93;100.00;101426.88;5265511;28;20025;-68
2023/06/17 05:01:51;;;;;;;16.35;12.98;;;;;;;13.97;100.00;101429.31;5265941;28;20032;-67
2023/06/17 05:04:22;;;;;;;16.30;13.02;;;;;;;14.02;100.00;101435.16;5266042;28;20044;-68
2023/06/17 05:06:53;;;;;;;16.08;13.70;;;;;;;14.03;100.00;101432.31;5265698;28;20033;-68
2023/06/17 05:09:25;;;;;;;17.00;14.57;;;;;;;14.01;100.00;101428.91;5267285;28;20138;-68
2023/06/17 05:11:56;;;;;;;16.33;14.35;;;;;;;14.08;100.00;101440.88;5267466;28;20032;-68
2023/06/17 05:14:28;;;;;;;16.45;14.75;;;;;;;14.11;100.00;101440.63;5269491;28;20029;-68
2023/06/17 05:16:59;;;;;;;18.40;16.55;;;;;;;14.27;100.00;101445.56;5270739;28;20481;-67
2023/06/17 05:19:31;;;;;;;18.80;16.35;;;;;;;14.26;100.00;101435.81;5269933;28;20021;-67
2023/06/17 05:22:02;;;;;;;22.38;19.35;;;;;;;14.42;100.00;101445.25;5269955;28;20040;-68
2023/06/17 05:24:33;;;;;;;19.00;16.77;;;;;;;14.31;100.00;101441.66;5269573;28;20110;-68
2023/06/17 05:27:05;;;;;;;18.35;15.98;;;;;;;14.34;100.00;101439.69;5268769;28;20025;-67
2023/06/17 05:29:37;;;;;;;18.85;16.75;;;;;;;14.43;100.00;101441.63;5271172;28;20032;-67
2023/06/17 05:32:08;;;;;;;19.88;17.75;;;;;;;14.60;100.00;101438.41;5268644;28;20036;-68
2023/06/17 05:34:39;;;;;;;18.92;16.90;;;;;;;14.50;100.00;101437.44;5269718;28;20024;-68
2023/06/17 05:37:11;;;;;;;18.88;16.73;;;;;;;14.54;100.00;101438.03;5271242;28;20027;-67
2023/06/17 05:39:42;;;;;;;17.85;15.45;;;;;;;14.73;100.00;101435.53;5271405;28;20024;-68
2023/06/17 05:42:14;;;;;;;19.58;16.75;;;;;;;14.75;100.00;101430.88;5267932;28;20028;-68
2023/06/17 05:44:45;;;;;;;19.00;17.00;;;;;;;14.87;100.00;101432.50;5269367;28;20032;-68
2023/06/17 05:47:16;;;;;;;20.23;16.98;;;;;;;14.85;100.00;101431.78;5270066;28;20086;-68
2023/06/17 05:49:48;;;;;;;22.17;18.20;;;;;;;14.91;100.00;101435.78;5267717;28;20048;-68
2023/06/17 05:52:19;;;;;;;19.80;16.75;;;;;;;15.07;100.00;101429.94;5265037;28;20046;-68
2023/06/17 05:54:51;;;;;;;20.35;17.85;;;;;;;15.13;100.00;101436.63;5265849;28;20020;-68
2023/06/17 05:57:22;;;;;;;30.40;18.63;;;;;;;15.24;100.00;101444.63;5269711;28;20085;-68
2023/06/17 05:59:53;;;;;;;20.10;17.75;;;;;;;15.17;100.00;101438.94;5269884;28;20021;-68
2023/06/17 06:02:25;;;;;;;19.33;17.25;;;;;;;15.32;100.00;101433.19;5267235;28;20564;-67
2023/06/17 06:04:56;;;;;;;19.08;17.08;;;;;;;15.28;100.00;101427.22;5259914;28;21407;-68
2023/06/17 06:07:27;;;;;;;19.30;17.17;;;;;;;15.46;100.00;101432.84;5271524;28;20048;-68
2023/06/17 06:09:59;;;;;;;18.80;16.80;;;;;;;15.50;100.00;101431.59;5269077;28;20130;-68
2023/06/17 06:12:30;;;;;;;19.88;16.42;;;;;;;15.49;100.00;101441.50;5270355;28;20071;-67
2023/06/17 06:15:05;;;;;;;20.55;18.30;;;;;;;15.70;100.00;101443.25;5274426;28;20044;-68
2023/06/17 06:17:37;;;;;;;20.50;18.13;;;;;;;15.61;100.00;101438.69;5263095;28;20024;-67
2023/06/17 06:20:08;;;;;;;24.20;19.35;;;;;;;15.68;100.00;101440.72;5273221;28;20063;-67
2023/06/17 06:22:40;;;;;;;20.00;17.52;;;;;;;15.73;100.00;101429.59;5270763;28;20036;-68
2023/06/17 06:25:11;;;;;;;21.90;17.67;;;;;;;15.87;100.00;101428.34;5268915;28;20546;-68
2023/06/17 06:27:42;;;;;;;20.50;16.95;;;;;;;15.91;100.00;101428.94;5262575;28;20142;-68
2023/06/17 06:30:15;;;;;;;19.77;16.85;;;;;;;15.97;100.00;101429.22;5257710;28;20040;-68
2023/06/17 06:32:46;;;;;;;17.80;16.00;;;;;;;16.07;100.00;101429.25;5266578;28;20087;-67
2023/06/17 06:35:17;;;;;;;16.80;15.10;;;;;;;16.17;100.00;101418.50;5265063;28;20032;-68
2023/06/17 06:37:49;;;;;;;17.77;15.95;;;;;;;16.18;100.00;101426.41;5257555;28;20032;-67
2023/06/17 06:40:20;;;;;;;17.08;15.20;;;;;;;16.42;100.00;101423.31;5267869;28;20510;-68
2023/06/17 06:42:52;;;;;;;22.70;14.77;;;;;;;16.58;100.00;101432.69;5261865;28;20352;-68
2023/06/17 06:45:23;;;;;;;16.00;14.40;;;;;;;16.79;100.00;101433.38;5262450;28;20028;-68
2023/06/17 06:47:55;;;;;;;16.50;13.85;;;;;;;16.90;100.00;101434.25;5266482;28;20021;-68
2023/06/17 06:50:26;;;;;;;15.07;13.60;;;;;;;16.92;100.00;101429.56;5274983;28;20054;-69
2023/06/17 06:52:58;;;;;;;16.65;13.07;;;;;;;17.02;100.00;101433.09;5268390;28;20032;-68
2023/06/17 06:55:29;;;;;;;17.23;13.05;;;;;;;17.24;100.00;101435.44;5267012;28;20035;-68
2023/06/17 06:58:01;;;;;;;17.08;12.35;;;;;;;17.29;100.00;101435.00;5264693;28;20029;-67
2023/06/17 07:00:32;;;;;;;15.30;12.63;;;;;;;17.52;100.00;101432.78;5264759;28;20021;-67
2023/06/17 07:03:04;;;;;;;13.65;12.05;;;;;;;17.69;100.00;101439.25;5264748;28;20025;-67
2023/06/17 07:05:35;;;;;;;12.50;10.20;;;;;;;18.06;100.00;101430.25;5267918;28;20721;-68
2023/06/17 07:08:06;;;;;;;14.02;11.38;;;;;;;18.07;100.00;101431.97;5266812;28;20052;-68
2023/06/17 07:10:39;;;;;;;14.52;12.93;;;;;;;18.34;100.00;101432.91;5261518;28;20139;-67
2023/06/17 07:13:11;;;;;;;14.52;11.73;;;;;;;18.32;100.00;101432.22;5262335;28;20029;-68
2023/06/17 07:15:42;;;;;;;16.17;10.57;;;;;;;18.46;100.00;101434.38;5263522;28;20547;-68
2023/06/17 07:18:13;;;;;;;11.95;10.73;;;;;;;18.45;100.00;101430.00;5264167;28;20028;-68
2023/06/17 07:20:45;;;;;;;13.27;10.23;;;;;;;18.68;100.00;101432.19;5270295;28;20028;-68
2023/06/17 07:23:16;;;;;;;12.77;10.20;;;;;;;18.58;100.00;101425.03;5270738;28;20123;-68
2023/06/17 07:25:48;;;;;;;12.95;11.50;;;;;;;18.70;100.00;101433.75;5270049;28;20471;-68
2023/06/17 07:28:20;;;;;;;12.00;9.38;;;;;;;18.92;100.00;101428.88;5267204;28;20395;-68
2023/06/17 07:30:51;;;;;;;12.93;10.05;;;;;;;18.88;100.00;101428.34;5268695;28;20411;-68
2023/06/17 07:33:23;;;;;;;13.50;11.30;;;;;;;18.99;100.00;101429.94;5268874;28;20028;-68
2023/06/17 07:35:54;;;;;;;14.07;12.57;;;;;;;19.29;100.00;101428.63;5269693;28;20021;-68
2023/06/17 07:38:26;;;;;;;14.55;12.07;;;;;;;19.28;100.00;101429.63;5267746;28;20028;-68
2023/06/17 07:40:57;;;;;;;9.93;8.85;;;;;;;19.53;100.00;101429.75;5264433;28;20017;-68
2023/06/17 07:43:29;;;;;;;12.55;8.27;;;;;;;19.51;100.00;101435.31;5270626;28;20040;-68
2023/06/17 07:46:01;;;;;;;14.13;11.02;;;;;;;19.59;100.00;101429.09;5268454;28;20078;-68
2023/06/17 07:48:33;;;;;;;12.55;10.88;;;;;;;19.67;100.00;101428.28;5267461;28;20017;-68
2023/06/17 07:51:05;;;;;;;13.73;10.32;;;;;;;19.86;100.00;101428.03;5268446;28;20036;-68
2023/06/17 07:53:36;;;;;;;13.88;9.93;;;;;;;19.99;100.00;101424.88;5273407;28;20346;-68
2023/06/17 07:56:08;;;;;;;12.57;8.55;;;;;;;20.14;100.00;101427.81;5272217;28;20032;-68
2023/06/17 07:58:39;;;;;;;8.82;6.65;;;;;;;20.23;100.00;101417.81;5272511;28;20054;-67
2023/06/17 08:01:10;;;;;;;7.82;5.93;;;;;;;20.53;99.34;101411.75;5273068;28;20024;-68
2023/06/17 08:03:42;;;;;;;10.10;6.78;;;;;;;20.69;98.17;101423.63;5272396;28;20028;-68
2023/06/17 08:06:14;;;;;;;9.98;7.82;;;;;;;20.65;100.00;101419.56;5272481;28;20027;-68
2023/06/17 08:08:45;;;;;;;7.90;6.13;;;;;;;20.74;93.90;101411.25;5271498;28;20044;-68
2023/06/17 08:11:17;;;;;;;8.45;5.80;;;;;;;20.78;92.88;101428.03;5272035;28;20032;-68
2023/06/17 08:13:48;;;;;;;7.28;5.15;;;;;;;20.82;93.57;101421.25;5271489;28;20032;-68
2023/06/17 08:16:20;;;;;;;10.77;7.18;;;;;;;20.88;91.51;101412.47;5275127;28;20034;-68
2023/06/17 08:18:51;;;;;;;9.00;6.32;;;;;;;20.97;93.78;101417.88;5273412;28;20027;-68
2023/06/17 08:21:22;;;;;;;8.30;6.03;;;;;;;21.06;99.27;101416.84;5273752;28;20029;-68
2023/06/17 08:23:54;;;;;;;8.77;5.50;;;;;;;21.12;92.98;101414.25;5276202;28;20085;-68
2023/06/17 08:26:25;;;;;;;9.90;5.38;;;;;;;21.18;92.54;101412.72;5278048;28;20271;-67
2023/06/17 08:28:57;;;;;;;9.43;5.38;;;;;;;21.25;92.25;101416.44;5275335;28;20470;-68
2023/06/17 08:31:28;;;;;;;9.40;6.30;;;;;;;21.41;90.04;101412.81;5277134;28;20619;-67
2023/06/17 08:34:00;;;;;;;9.05;5.68;;;;;;;21.54;89.67;101407.72;5281624;28;20395;-67
2023/06/17 08:36:32;;;;;;;8.93;7.10;;;;;;;21.60;95.35;101406.16;5274388;28;20672;-67
2023/06/17 08:39:04;;;;;;;7.80;5.38;;;;;;;21.71;88.55;101402.22;5277069;28;20059;-67
2023/06/17 08:41:41;;;;;;;7.50;4.03;;;;;;;21.91;86.25;101411.63;5276407;28;20059;-68
2023/06/17 08:44:13;;;;;;;7.43;5.30;;;;;;;22.29;89.47;101406.31;5277029;28;20483;-68
2023/06/17 08:46:48;;;;;;;8.57;6.45;;;;;;;22.52;90.01;101406.31;5290101;28;20028;-68
2023/06/17 08:49:21;;;;;;;11.70;7.30;;;;;;;22.33;91.77;101405.97;5275656;28;20032;-68
2023/06/17 08:51:53;;;;;;;10.07;7.57;;;;;;;22.48;89.31;101404.97;5273504;28;20083;-68
2023/06/17 08:54:27;;;;;;;8.80;6.43;;;;;;;22.31;86.94;101397.97;5275764;28;20432;-67
2023/06/17 08:56:59;;;;;;;8.70;5.57;;;;;;;22.46;82.77;101401.59;5275105;28;20514;-68
2023/06/17 08:59:30;;;;;;;9.93;5.45;;;;;;;22.44;84.66;101400.94;5277008;28;20027;-68
2023/06/17 09:02:03;;;;;;;9.20;5.00;;;;;;;22.56;82.27;101404.06;5278272;28;20383;-68
2023/06/17 09:04:35;;;;;;;7.00;4.88;;;;;;;22.93;79.95;101398.81;5277223;28;20031;-68
2023/06/17 09:07:09;;;;;;;8.70;5.22;;;;;;;22.83;81.29;101409.97;5276444;28;20039;-68
2023/06/17 09:09:48;;;;;;;7.65;5.00;;;;;;;23.02;83.59;101403.13;5276155;28;20032;-68
2023/06/17 09:12:22;;;;;;;9.68;6.07;;;;;;;23.05;86.52;101395.47;5277621;28;20032;-68
2023/06/17 09:14:56;;;;;;;9.13;5.03;;;;;;;23.17;82.10;101404.03;5273176;28;20363;-68
2023/06/17 09:17:31;;;;;;;7.03;4.75;;;;;;;23.15;80.66;101402.53;5276745;28;20034;-68
2023/06/17 09:20:13;;;;;;;6.32;4.30;;;;;;;23.41;82.60;101408.34;5277992;28;20024;-68
2023/06/17 09:22:47;;;;;;;6.82;4.18;;;;;;;23.38;78.73;101407.91;5275673;28;20027;-68
2023/06/17 09:25:20;;;;;;;6.18;4.55;;;;;;;23.49;84.69;101399.22;5276165;28;20024;-68
2023/06/17 09:27:53;;;;;;;7.57;5.00;;;;;;;23.42;80.75;101410.03;5274806;28;20471;-68
2023/06/17 09:30:25;;;;;;;6.78;4.47;;;;;;;23.65;88.16;101396.31;5276777;28;20024;-68
2023/06/17 09:32:56;;;;;;;9.07;4.20;;;;;;;23.73;86.33;101402.69;5277006;28;20386;-68
2023/06/17 09:35:27;;;;;;;7.93;4.63;;;;;;;23.87;82.38;101401.81;5274042;28;20074;-68
2023/06/17 09:38:00;;;;;;;6.80;4.50;;;;;;;23.74;87.57;101399.78;5278043;28;20482;-68
2023/06/17 09:40:33;;;;;;;7.00;4.93;;;;;;;23.80;80.77;101400.94;5277505;28;20017;-68
2023/06/17 09:43:05;;;;;;;6.87;4.63;;;;;;;23.83;82.33;101405.97;5274588;28;20020;-69
2023/06/17 09:45:38;;;;;;;8.07;4.72;;;;;;;23.79;82.10;101400.06;5275345;28;20036;-68
2023/06/17 09:48:09;;;;;;;5.68;4.03;;;;;;;23.75;84.89;101404.16;5275981;28;20024;-68
2023/06/17 09:50:42;;;;;;;6.20;4.15;;;;;;;23.89;84.44;101399.75;5277004;28;20024;-68
2023/06/17 09:53:14;;;;;;;7.38;4.38;;;;;;;23.95;82.14;101403.59;5274306;28;20020;-68
2023/06/17 09:55:45;;;;;;;7.53;4.75;;;;;;;24.04;79.47;101397.00;5274673;28;20433;-68
2023/06/17 09:58:18;;;;;;;7.13;4.38;;;;;;;23.94;86.67;101396.47;5276215;28;20032;-68
2023/06/17 10:00:51;;;;;;;6.18;4.25;;;;;;;24.12;81.23;101398.75;5277225;28;20039;-68
2023/06/17 10:03:23;;;;;;;8.35;4.35;;;;;;;24.02;81.05;101399.91;5274991;28;20504;-69
2023/06/17 10:06:10;;;;;;;7.15;3.90;;;;;;;24.31;85.07;101391.81;5276058;28;20028;-68
2023/06/17 10:08:48;;;;;;;7.25;4.55;;;;;;;24.26;82.55;101392.41;5272457;28;20406;-69
2023/06/17 10:11:20;;;;;;;6.43;4.20;;;;;;;24.45;76.81;101383.56;5278126;28;20035;-68
2023/06/17 10:14:23;;;;;;;6.03;3.97;;;;;;;24.43;81.91;101376.59;5278119;28;20514;-68
2023/06/17 10:16:55;;;;;;;7.22;3.78;;;;;;;24.59;84.81;101376.38;5275474;28;20473;-68
2023/06/17 10:19:32;;;;;;;7.68;4.00;;;;;;;24.93;86.09;101374.75;5274877;28;20056;-68
2023/06/17 10:22:11;;;;;;;5.80;4.15;;;;;;;24.73;76.16;101374.59;5272626;28;20036;-68
2023/06/17 10:24:42;;;;;;;6.43;4.05;;;;;;;24.87;77.36;101377.41;5274648;28;20036;-69
2023/06/17 10:27:14;;;;;;;5.85;4.05;;;;;;;24.92;80.88;101383.97;5275601;28;20031;-68
2023/06/17 10:29:48;;;;;;;5.40;3.55;;;;;;;25.16;79.17;101373.59;5276352;28;20557;-68
2023/06/17 10:32:22;;;;;;;7.30;3.80;;;;;;;25.22;75.88;101368.22;5277537;28;20028;-69
2023/06/17 10:35:06;;;;;;;7.53;4.00;;;;;;;25.27;80.31;101374.97;5272686;28;20356;-69
2023/06/17 10:37:47;;;;;;;4.97;3.47;;;;;;;25.15;74.64;101370.03;5275331;28;20109;-69
2023/06/17 10:40:26;;;;;;;5.32;3.50;;;;;;;25.21;74.16;101382.03;5275438;28;20031;-69
2023/06/17 10:43:00;;;;;;;5.68;3.63;;;;;;;25.28;71.83;101379.41;5273975;28;20044;-68
2023/06/17 10:45:44;;;;;;;5.28;3.95;;;;;;;25.08;73.54;101369.16;5275009;28;20106;-69
2023/06/17 10:48:27;;;;;;;5.05;3.50;;;;;;;25.24;76.06;101379.78;5276014;28;20040;-69
2023/06/17 10:51:08;;;;;;;7.50;4.33;;;;;;;25.28;76.10;101372.03;5273840;28;20034;-69
2023/06/17 10:53:47;;;;;;;7.35;4.25;;;;;;;25.23;74.24;101372.63;5273268;28;20286;-69
2023/06/17 10:56:18;;;;;;;5.28;3.90;;;;;;;25.10;76.28;101368.94;5272387;28;20198;-69
2023/06/17 10:58:51;;;;;;;5.68;3.70;;;;;;;25.15;78.41;101361.00;5272901;28;20095;-68
2023/06/17 11:01:22;;;;;;;5.07;3.40;;;;;;;25.14;79.67;101357.44;5275923;28;20040;-69
2023/06/17 11:03:58;;;;;;;6.63;3.70;;;;;;;25.30;73.73;101363.66;5273802;28;20425;-69
2023/06/17 11:06:31;;;;;;;6.18;3.90;;;;;;;25.15;76.41;101361.00;5275594;28;20028;-69
2023/06/17 11:09:04;;;;;;;5.55;3.25;;;;;;;25.27;72.97;101347.66;5275557;28;20041;-69
2023/06/17 11:11:36;;;;;;;7.57;3.70;;;;;;;25.29;71.65;101345.56;5275399;28;20062;-69
2023/06/17 11:14:08;;;;;;;6.38;4.00;;;;;;;25.28;75.29;101347.47;5274190;28;20650;-69
2023/06/17 11:16:39;;;;;;;5.75;4.07;;;;;;;25.43;73.20;101350.06;5274445;28;20032;-69
2023/06/17 11:19:13;;;;;;;8.30;4.10;;;;;;;25.42;71.59;101341.00;5272088;28;20021;-69
2023/06/17 11:21:45;;;;;;;6.00;4.00;;;;;;;25.59;77.69;101341.47;5273701;28;20050;-69
2023/06/17 11:24:17;;;;;;;5.85;3.83;;;;;;;25.52;75.84;101345.25;5276296;28;20118;-69
2023/06/17 11:26:48;;;;;;;5.32;4.03;;;;;;;25.67;78.74;101332.25;5271041;28;21086;-69
2023/06/17 11:29:20;;;;;;;6.05;4.32;;;;;;;25.73;73.86;101327.84;5272048;28;20383;-69
2023/06/17 11:31:53;;;;;;;5.68;4.00;;;;;;;25.79;77.64;101324.28;5273189;28;20585;-69
2023/06/17 11:34:31;;;;;;;6.83;4.30;;;;;;;25.93;75.13;101317.03;5274483;28;20106;-69
2023/06/17 11:37:06;;;;;;;7.32;4.18;;;;;;;25.99;74.92;101319.75;5272199;28;20040;-67